sensor_id;sensor_type;location;lat;lon;timestamp;pressure;altitude;pressure_sealevel;temperature;humidity
75775;BME280;64505;51.458;7.556;2023-05-21T00:00:29;99908.88;;;12.27;82.23
75775;BME280;64505;51.458;7.556;2023-05-21T00:02:31;99905.41;;;12.27;81.24
75775;BME280;64505;51.458;7.556;2023-05-21T00:04:34;99906.47;;;12.26;81.65
75775;BME280;64505;51.458;7.556;2023-05-21T00:06:36;99897.94;;;12.24;81.59
75775;BME280;64505;51.458;7.556;2023-05-21T00:08:38;99901.38;;;12.24;82.16
75775;BME280;64505;51.458;7.556;2023-05-21T00:10:40;99893.66;;;12.23;82.78
75775;BME280;64505;51.458;7.556;2023-05-21T00:12:41;99898.59;;;12.19;83.04
75775;BME280;64505;51.458;7.556;2023-05-21T00:14:43;99893.09;;;12.21;83.05
75775;BME280;64505;51.458;7.556;2023-05-21T00:16:45;99890.44;;;12.21;83.45
75775;BME280;64505;51.458;7.556;2023-05-21T00:18:47;99893.91;;;12.21;82.12
75775;BME280;64505;51.458;7.556;2023-05-21T00:20:54;99888.81;;;12.20;83.07
75775;BME280;64505;51.458;7.556;2023-05-21T00:22:56;99881.91;;;12.19;82.91
75775;BME280;64505;51.458;7.556;2023-05-21T00:24:58;99884.78;;;12.17;82.57
75775;BME280;64505;51.458;7.556;2023-05-21T00:27:00;99884.56;;;12.19;82.32
75775;BME280;64505;51.458;7.556;2023-05-21T00:29:02;99881.31;;;12.17;83.65
75775;BME280;64505;51.458;7.556;2023-05-21T00:31:03;99875.00;;;12.18;82.80
75775;BME280;64505;51.458;7.556;2023-05-21T00:33:05;99871.53;;;12.17;82.18
75775;BME280;64505;51.458;7.556;2023-05-21T00:35:08;99869.91;;;12.16;83.48
75775;BME280;64505;51.458;7.556;2023-05-21T00:37:09;99863.78;;;12.16;84.42
75775;BME280;64505;51.458;7.556;2023-05-21T00:39:12;99863.56;;;12.17;84.49
75775;BME280;64505;51.458;7.556;2023-05-21T00:41:14;99860.94;;;12.17;82.67
75775;BME280;64505;51.458;7.556;2023-05-21T00:43:15;99866.78;;;12.19;83.17
75775;BME280;64505;51.458;7.556;2023-05-21T00:45:17;99859.09;;;12.18;83.60
75775;BME280;64505;51.458;7.556;2023-05-21T00:47:19;99858.84;;;12.19;82.61
75775;BME280;64505;51.458;7.556;2023-05-21T00:49:24;99859.91;;;12.18;83.48
75775;BME280;64505;51.458;7.556;2023-05-21T00:51:26;99857.47;;;12.17;83.97
75775;BME280;64505;51.458;7.556;2023-05-21T00:53:30;99855.63;;;12.17;83.83
75775;BME280;64505;51.458;7.556;2023-05-21T00:55:38;99858.28;;;12.17;84.93
75775;BME280;64505;51.458;7.556;2023-05-21T00:57:40;99857.47;;;12.17;83.37
75775;BME280;64505;51.458;7.556;2023-05-21T00:59:43;99856.66;;;12.16;83.20
75775;BME280;64505;51.458;7.556;2023-05-21T01:01:44;99850.53;;;12.16;84.40
75775;BME280;64505;51.458;7.556;2023-05-21T01:03:53;99852.16;;;12.17;83.02
75775;BME280;64505;51.458;7.556;2023-05-21T01:05:58;99855.16;;;12.20;83.02
75775;BME280;64505;51.458;7.556;2023-05-21T01:08:25;99845.22;;;12.16;82.55
75775;BME280;64505;51.458;7.556;2023-05-21T01:10:33;99847.44;;;12.19;84.14
75775;BME280;64505;51.458;7.556;2023-05-21T01:12:37;99847.44;;;12.19;83.57
75775;BME280;64505;51.458;7.556;2023-05-21T01:14:39;99853.19;;;12.16;82.94
75775;BME280;64505;51.458;7.556;2023-05-21T01:16:43;99847.88;;;12.16;84.43
75775;BME280;64505;51.458;7.556;2023-05-21T01:18:47;99845.03;;;12.17;83.70
75775;BME280;64505;51.458;7.556;2023-05-21T01:20:49;99845.03;;;12.17;83.77
75775;BME280;64505;51.458;7.556;2023-05-21T01:22:55;99842.84;;;12.14;83.29
75775;BME280;64505;51.458;7.556;2023-05-21T01:24:57;99839.16;;;12.15;82.76
75775;BME280;64505;51.458;7.556;2023-05-21T01:27:00;99840.75;;;12.16;83.51
75775;BME280;64505;51.458;7.556;2023-05-21T01:29:04;99845.22;;;12.16;83.05
75775;BME280;64505;51.458;7.556;2023-05-21T01:31:18;99843.41;;;12.16;83.10
75775;BME280;64505;51.458;7.556;2023-05-21T01:33:37;99841.56;;;12.17;83.35
75775;BME280;64505;51.458;7.556;2023-05-21T01:35:46;99843.41;;;12.16;83.30
75775;BME280;64505;51.458;7.556;2023-05-21T01:37:58;99835.69;;;12.15;83.64
75775;BME280;64505;51.458;7.556;2023-05-21T01:42:14;99839.16;;;12.15;82.70
75775;BME280;64505;51.458;7.556;2023-05-21T01:44:17;99840.41;;;12.13;84.25
75775;BME280;64505;51.458;7.556;2023-05-21T01:46:22;99832.69;;;12.11;83.70
75775;BME280;64505;51.458;7.556;2023-05-21T01:48:27;99839.84;;;12.11;84.59
75775;BME280;64505;51.458;7.556;2023-05-21T01:50:29;99838.00;;;12.11;83.86
75775;BME280;64505;51.458;7.556;2023-05-21T01:52:32;99831.06;;;12.10;83.59
75775;BME280;64505;51.458;7.556;2023-05-21T01:54:34;99837.41;;;12.09;84.15
75775;BME280;64505;51.458;7.556;2023-05-21T01:56:35;99830.72;;;12.07;84.70
75775;BME280;64505;51.458;7.556;2023-05-21T01:58:37;99830.13;;;12.05;84.11
75775;BME280;64505;51.458;7.556;2023-05-21T02:00:39;99825.63;;;12.05;84.84
75775;BME280;64505;51.458;7.556;2023-05-21T02:02:40;99826.34;;;12.01;85.35
75775;BME280;64505;51.458;7.556;2023-05-21T02:04:42;99825.06;;;12.03;84.90
75775;BME280;64505;51.458;7.556;2023-05-21T02:06:44;99824.25;;;12.03;84.00
75775;BME280;64505;51.458;7.556;2023-05-21T02:08:46;99820.81;;;12.02;83.88
75775;BME280;64505;51.458;7.556;2023-05-21T02:10:49;99821.81;;;12.01;84.06
75775;BME280;64505;51.458;7.556;2023-05-21T02:12:50;99826.34;;;12.01;84.86
75775;BME280;64505;51.458;7.556;2023-05-21T02:14:52;99820.25;;;12.00;83.92
75775;BME280;64505;51.458;7.556;2023-05-21T02:16:54;99818.63;;;11.99;84.38
75775;BME280;64505;51.458;7.556;2023-05-21T02:18:55;99821.13;;;11.94;85.13
75775;BME280;64505;51.458;7.556;2023-05-21T02:21:02;99816.41;;;11.96;84.45
75775;BME280;64505;51.458;7.556;2023-05-21T02:23:03;99817.09;;;11.92;84.59
75775;BME280;64505;51.458;7.556;2023-05-21T02:25:06;99817.91;;;11.92;84.45
75775;BME280;64505;51.458;7.556;2023-05-21T02:27:09;99815.94;;;11.88;85.53
75775;BME280;64505;51.458;7.556;2023-05-21T02:29:10;99822.06;;;11.88;84.96
75775;BME280;64505;51.458;7.556;2023-05-21T02:31:12;99814.91;;;11.89;84.36
75775;BME280;64505;51.458;7.556;2023-05-21T02:33:15;99821.03;;;11.89;84.57
75775;BME280;64505;51.458;7.556;2023-05-21T02:35:16;99817.56;;;11.89;84.49
75775;BME280;64505;51.458;7.556;2023-05-21T02:37:19;99812.72;;;11.86;83.95
75775;BME280;64505;51.458;7.556;2023-05-21T02:39:20;99815.94;;;11.88;83.80
75775;BME280;64505;51.458;7.556;2023-05-21T02:41:22;99811.78;;;11.80;85.25
75775;BME280;64505;51.458;7.556;2023-05-21T02:43:24;99814.78;;;11.83;85.24
75775;BME280;64505;51.458;7.556;2023-05-21T02:45:27;99818.47;;;11.82;84.23
75775;BME280;64505;51.458;7.556;2023-05-21T02:47:28;99817.66;;;11.82;85.06
75775;BME280;64505;51.458;7.556;2023-05-21T02:49:30;99810.41;;;11.77;85.60
75775;BME280;64505;51.458;7.556;2023-05-21T02:51:32;99822.63;;;11.78;85.04
75775;BME280;64505;51.458;7.556;2023-05-21T02:53:33;99810.41;;;11.77;84.54
75775;BME280;64505;51.458;7.556;2023-05-21T02:55:35;99811.88;;;11.73;86.09
75775;BME280;64505;51.458;7.556;2023-05-21T02:57:37;99818.81;;;11.74;84.87
75775;BME280;64505;51.458;7.556;2023-05-21T02:59:39;99820.66;;;11.74;85.37
75775;BME280;64505;51.458;7.556;2023-05-21T03:01:41;99815.56;;;11.72;85.30
75775;BME280;64505;51.458;7.556;2023-05-21T03:03:42;99820.66;;;11.74;85.27
75775;BME280;64505;51.458;7.556;2023-05-21T03:05:44;99813.16;;;11.71;85.67
75775;BME280;64505;51.458;7.556;2023-05-21T03:07:46;99801.72;;;11.70;86.55
75775;BME280;64505;51.458;7.556;2023-05-21T03:09:47;99806.59;;;11.73;85.33
75775;BME280;64505;51.458;7.556;2023-05-21T03:11:49;99807.84;;;11.71;86.50
75775;BME280;64505;51.458;7.556;2023-05-21T03:13:51;99801.94;;;11.69;85.17
75775;BME280;64505;51.458;7.556;2023-05-21T03:15:52;99800.72;;;11.71;85.17
75775;BME280;64505;51.458;7.556;2023-05-21T03:17:58;99798.47;;;11.68;85.92
75775;BME280;64505;51.458;7.556;2023-05-21T03:19:59;99805.38;;;11.69;86.59
75775;BME280;64505;51.458;7.556;2023-05-21T03:22:02;99802.31;;;11.72;84.90
75775;BME280;64505;51.458;7.556;2023-05-21T03:24:05;99803.38;;;11.71;84.85
75775;BME280;64505;51.458;7.556;2023-05-21T03:26:07;99805.63;;;11.68;86.96
75775;BME280;64505;51.458;7.556;2023-05-21T03:28:09;99806.41;;;11.68;86.61
75775;BME280;64505;51.458;7.556;2023-05-21T03:30:11;99805.22;;;11.71;86.04
75775;BME280;64505;51.458;7.556;2023-05-21T03:32:12;99800.09;;;11.69;86.21
75775;BME280;64505;51.458;7.556;2023-05-21T03:34:14;99801.13;;;11.68;86.09
75775;BME280;64505;51.458;7.556;2023-05-21T03:36:17;99794.78;;;11.69;86.48
75775;BME280;64505;51.458;7.556;2023-05-21T03:38:18;99803.38;;;11.71;86.01
75775;BME280;64505;51.458;7.556;2023-05-21T03:40:20;99810.69;;;11.69;86.20
75775;BME280;64505;51.458;7.556;2023-05-21T03:42:22;99803.94;;;11.73;85.25
75775;BME280;64505;51.458;7.556;2023-05-21T03:44:23;99798.88;;;11.72;85.48
75775;BME280;64505;51.458;7.556;2023-05-21T03:46:25;99799.28;;;11.69;86.53
75775;BME280;64505;51.458;7.556;2023-05-21T03:48:28;99802.31;;;11.72;85.68
75775;BME280;64505;51.458;7.556;2023-05-21T03:50:29;99807.84;;;11.71;86.45
75775;BME280;64505;51.458;7.556;2023-05-21T03:52:31;99800.47;;;11.73;86.13
75775;BME280;64505;51.458;7.556;2023-05-21T03:54:33;99798.63;;;11.73;86.68
75775;BME280;64505;51.458;7.556;2023-05-21T03:56:34;99804.53;;;11.75;86.18
75775;BME280;64505;51.458;7.556;2023-05-21T03:58:36;99794.72;;;11.76;86.21
75775;BME280;64505;51.458;7.556;2023-05-21T04:00:37;99798.44;;;11.75;86.92
75775;BME280;64505;51.458;7.556;2023-05-21T04:02:39;99800.81;;;11.76;86.10
75775;BME280;64505;51.458;7.556;2023-05-21T04:04:41;99802.25;;;11.79;86.31
75775;BME280;64505;51.458;7.556;2023-05-21T04:06:44;99798.78;;;11.78;86.28
75775;BME280;64505;51.458;7.556;2023-05-21T04:08:46;99802.81;;;11.81;86.72
75775;BME280;64505;51.458;7.556;2023-05-21T04:10:48;99803.25;;;11.78;86.88
75775;BME280;64505;51.458;7.556;2023-05-21T04:12:50;99802.59;;;11.82;85.92
75775;BME280;64505;51.458;7.556;2023-05-21T04:14:52;99806.47;;;11.80;86.28
75775;BME280;64505;51.458;7.556;2023-05-21T04:16:54;99806.25;;;11.81;87.00
75775;BME280;64505;51.458;7.556;2023-05-21T04:18:57;99807.88;;;11.82;87.30
75775;BME280;64505;51.458;7.556;2023-05-21T04:20:58;99802.13;;;11.86;86.43
75775;BME280;64505;51.458;7.556;2023-05-21T04:23:01;99809.63;;;11.89;85.73
75775;BME280;64505;51.458;7.556;2023-05-21T04:25:04;99811.81;;;11.92;85.72
75775;BME280;64505;51.458;7.556;2023-05-21T04:27:05;99816.63;;;11.95;86.27
75775;BME280;64505;51.458;7.556;2023-05-21T04:29:07;99815.63;;;11.96;85.70
75775;BME280;64505;51.458;7.556;2023-05-21T04:31:10;99816.19;;;11.98;85.13
75775;BME280;64505;51.458;7.556;2023-05-21T04:33:14;99815.41;;;11.97;86.31
75775;BME280;64505;51.458;7.556;2023-05-21T04:35:18;99820.69;;;11.97;86.36
75775;BME280;64505;51.458;7.556;2023-05-21T04:37:20;99812.03;;;12.02;84.89
75775;BME280;64505;51.458;7.556;2023-05-21T04:39:24;99810.78;;;12.04;85.54
75775;BME280;64505;51.458;7.556;2023-05-21T04:41:26;99808.72;;;12.06;85.29
75775;BME280;64505;51.458;7.556;2023-05-21T04:43:29;99815.63;;;12.07;85.95
75775;BME280;64505;51.458;7.556;2023-05-21T04:45:30;99811.50;;;12.11;85.32
75775;BME280;64505;51.458;7.556;2023-05-21T04:47:32;99815.28;;;12.15;85.58
75775;BME280;64505;51.458;7.556;2023-05-21T04:49:36;99822.66;;;12.13;84.67
75775;BME280;64505;51.458;7.556;2023-05-21T04:51:37;99815.41;;;12.20;84.84
75775;BME280;64505;51.458;7.556;2023-05-21T04:53:39;99806.63;;;12.20;84.63
75775;BME280;64505;51.458;7.556;2023-05-21T04:55:41;99807.56;;;12.25;85.13
75775;BME280;64505;51.458;7.556;2023-05-21T04:57:42;99805.72;;;12.26;85.52
75775;BME280;64505;51.458;7.556;2023-05-21T04:59:44;99801.91;;;12.22;86.34
75775;BME280;64505;51.458;7.556;2023-05-21T05:01:47;99805.81;;;12.31;84.99
75775;BME280;64505;51.458;7.556;2023-05-21T05:03:49;99808.00;;;12.34;84.62
75775;BME280;64505;51.458;7.556;2023-05-21T05:05:50;99805.13;;;12.36;85.07
75775;BME280;64505;51.458;7.556;2023-05-21T05:07:53;99805.25;;;12.41;84.29
75775;BME280;64505;51.458;7.556;2023-05-21T05:09:54;99801.06;;;12.45;84.34
75775;BME280;64505;51.458;7.556;2023-05-21T05:11:56;99805.25;;;12.41;85.49
75775;BME280;64505;51.458;7.556;2023-05-21T05:13:57;99802.47;;;12.47;84.63
75775;BME280;64505;51.458;7.556;2023-05-21T05:15:59;99806.97;;;12.35;85.55
75775;BME280;64505;51.458;7.556;2023-05-21T05:18:01;99803.16;;;12.54;83.91
75775;BME280;64505;51.458;7.556;2023-05-21T05:20:05;99803.50;;;12.58;83.79
75775;BME280;64505;51.458;7.556;2023-05-21T05:22:06;99800.72;;;12.64;83.26
75775;BME280;64505;51.458;7.556;2023-05-21T05:24:08;99807.41;;;12.67;83.91
75775;BME280;64505;51.458;7.556;2023-05-21T05:26:10;99800.59;;;12.71;84.37
75775;BME280;64505;51.458;7.556;2023-05-21T05:28:11;99797.94;;;12.71;84.17
75775;BME280;64505;51.458;7.556;2023-05-21T05:30:13;99796.28;;;12.81;83.03
75775;BME280;64505;51.458;7.556;2023-05-21T05:32:15;99798.94;;;12.81;83.65
75775;BME280;64505;51.458;7.556;2023-05-21T05:34:16;99805.19;;;12.87;83.28
75775;BME280;64505;51.458;7.556;2023-05-21T05:36:18;99807.09;;;12.92;83.22
75775;BME280;64505;51.458;7.556;2023-05-21T05:38:19;99812.75;;;12.95;83.33
75775;BME280;64505;51.458;7.556;2023-05-21T05:40:21;99811.50;;;12.98;83.18
75775;BME280;64505;51.458;7.556;2023-05-21T05:42:23;99810.75;;;13.02;83.62
75775;BME280;64505;51.458;7.556;2023-05-21T05:44:24;99803.53;;;13.09;82.33
75775;BME280;64505;51.458;7.556;2023-05-21T05:46:27;99802.78;;;13.14;83.04
75775;BME280;64505;51.458;7.556;2023-05-21T05:48:29;99804.97;;;13.17;82.82
75775;BME280;64505;51.458;7.556;2023-05-21T05:50:31;99795.97;;;13.18;81.60
75775;BME280;64505;51.458;7.556;2023-05-21T05:52:33;99794.78;;;13.25;81.30
75775;BME280;64505;51.458;7.556;2023-05-21T05:54:34;99793.28;;;13.29;81.96
75775;BME280;64505;51.458;7.556;2023-05-21T05:56:36;99796.75;;;13.30;80.97
75775;BME280;64505;51.458;7.556;2023-05-21T05:58:37;99800.28;;;13.36;81.72
75775;BME280;64505;51.458;7.556;2023-05-21T06:00:39;99799.72;;;13.34;81.37
75775;BME280;64505;51.458;7.556;2023-05-21T06:02:41;99800.06;;;13.37;81.78
75775;BME280;64505;51.458;7.556;2023-05-21T06:04:42;99806.25;;;13.43;82.14
75775;BME280;64505;51.458;7.556;2023-05-21T06:06:44;99807.50;;;13.52;81.61
75775;BME280;64505;51.458;7.556;2023-05-21T06:08:46;99803.31;;;13.56;81.48
75775;BME280;64505;51.458;7.556;2023-05-21T06:10:48;99800.16;;;13.59;81.85
75775;BME280;64505;51.458;7.556;2023-05-21T06:12:49;99804.50;;;13.65;81.36
75775;BME280;64505;51.458;7.556;2023-05-21T06:14:51;99794.53;;;13.72;80.45
75775;BME280;64505;51.458;7.556;2023-05-21T06:16:52;99800.28;;;13.80;79.68
75775;BME280;64505;51.458;7.556;2023-05-21T06:18:54;99799.28;;;13.87;80.00
75775;BME280;64505;51.458;7.556;2023-05-21T06:20:56;99797.28;;;13.77;80.87
75775;BME280;64505;51.458;7.556;2023-05-21T06:22:59;99803.63;;;13.93;80.64
75775;BME280;64505;51.458;7.556;2023-05-21T06:25:01;99802.59;;;13.94;80.23
75775;BME280;64505;51.458;7.556;2023-05-21T06:27:03;99805.66;;;14.02;79.10
75775;BME280;64505;51.458;7.556;2023-05-21T06:29:05;99809.13;;;14.03;79.58
75775;BME280;64505;51.458;7.556;2023-05-21T06:31:07;99802.03;;;14.08;79.81
75775;BME280;64505;51.458;7.556;2023-05-21T06:33:08;99802.50;;;14.22;78.93
75775;BME280;64505;51.458;7.556;2023-05-21T06:35:10;99799.50;;;14.18;79.56
75775;BME280;64505;51.458;7.556;2023-05-21T06:37:12;99804.91;;;14.23;79.95
75775;BME280;64505;51.458;7.556;2023-05-21T06:39:13;99807.81;;;14.22;79.25
75775;BME280;64505;51.458;7.556;2023-05-21T06:41:15;99806.78;;;14.23;79.36
75775;BME280;64505;51.458;7.556;2023-05-21T06:43:17;99803.38;;;14.27;79.21
75775;BME280;64505;51.458;7.556;2023-05-21T06:45:18;99798.47;;;14.36;78.79
75775;BME280;64505;51.458;7.556;2023-05-21T06:47:20;99789.72;;;14.36;79.32
75775;BME280;64505;51.458;7.556;2023-05-21T06:49:21;99795.78;;;14.53;78.28
75775;BME280;64505;51.458;7.556;2023-05-21T06:51:23;99792.72;;;14.44;77.93
75775;BME280;64505;51.458;7.556;2023-05-21T06:53:25;99796.09;;;14.56;78.07
75775;BME280;64505;51.458;7.556;2023-05-21T06:55:26;99796.97;;;14.62;79.19
75775;BME280;64505;51.458;7.556;2023-05-21T06:57:28;99798.50;;;14.58;80.12
75775;BME280;64505;51.458;7.556;2023-05-21T06:59:29;99795.41;;;14.66;77.68
75775;BME280;64505;51.458;7.556;2023-05-21T07:01:31;99789.78;;;14.62;78.50
75775;BME280;64505;51.458;7.556;2023-05-21T07:03:35;99782.84;;;14.83;77.70
75775;BME280;64505;51.458;7.556;2023-05-21T07:05:37;99783.91;;;14.82;78.00
75775;BME280;64505;51.458;7.556;2023-05-21T07:07:39;99778.03;;;14.80;78.22
75775;BME280;64505;51.458;7.556;2023-05-21T07:09:40;99773.63;;;14.91;78.92
75775;BME280;64505;51.458;7.556;2023-05-21T07:11:42;99784.88;;;14.98;77.16
75775;BME280;64505;51.458;7.556;2023-05-21T07:13:44;99778.50;;;14.99;77.26
75775;BME280;64505;51.458;7.556;2023-05-21T07:15:46;99781.47;;;15.02;77.15
75775;BME280;64505;51.458;7.556;2023-05-21T07:17:47;99777.47;;;15.26;76.82
75775;BME280;64505;51.458;7.556;2023-05-21T07:19:49;99775.22;;;15.13;77.65
75775;BME280;64505;51.458;7.556;2023-05-21T07:21:51;99772.41;;;15.25;77.18
75775;BME280;64505;51.458;7.556;2023-05-21T07:23:52;99774.06;;;15.31;76.94
75775;BME280;64505;51.458;7.556;2023-05-21T07:25:54;99772.69;;;15.50;75.93
75775;BME280;64505;51.458;7.556;2023-05-21T07:27:55;99771.66;;;15.56;76.23
75775;BME280;64505;51.458;7.556;2023-05-21T07:29:57;99782.88;;;15.58;75.82
75775;BME280;64505;51.458;7.556;2023-05-21T07:31:59;99787.03;;;15.76;75.92
75775;BME280;64505;51.458;7.556;2023-05-21T07:34:00;99793.19;;;15.82;75.99
75775;BME280;64505;51.458;7.556;2023-05-21T07:36:02;99786.28;;;15.86;75.54
75775;BME280;64505;51.458;7.556;2023-05-21T07:38:04;99784.66;;;15.80;75.89
75775;BME280;64505;51.458;7.556;2023-05-21T07:40:07;99789.31;;;15.99;74.71
75775;BME280;64505;51.458;7.556;2023-05-21T07:42:08;99784.50;;;15.91;75.82
75775;BME280;64505;51.458;7.556;2023-05-21T07:44:10;99787.34;;;16.16;74.98
75775;BME280;64505;51.458;7.556;2023-05-21T07:46:11;99787.88;;;16.18;74.51
75775;BME280;64505;51.458;7.556;2023-05-21T07:48:13;99792.97;;;16.20;73.91
75775;BME280;64505;51.458;7.556;2023-05-21T07:50:15;99805.31;;;16.36;74.41
75775;BME280;64505;51.458;7.556;2023-05-21T07:52:16;99791.25;;;16.46;73.52
75775;BME280;64505;51.458;7.556;2023-05-21T07:54:18;99799.69;;;16.33;74.30
75775;BME280;64505;51.458;7.556;2023-05-21T07:56:20;99798.81;;;16.59;73.37
75775;BME280;64505;51.458;7.556;2023-05-21T07:58:21;99794.28;;;16.64;73.17
75775;BME280;64505;51.458;7.556;2023-05-21T08:00:23;99799.81;;;16.53;72.70
75775;BME280;64505;51.458;7.556;2023-05-21T08:02:25;99795.03;;;16.55;72.30
75775;BME280;64505;51.458;7.556;2023-05-21T08:04:27;99803.22;;;16.85;72.16
75775;BME280;64505;51.458;7.556;2023-05-21T08:06:29;99808.59;;;16.95;71.74
75775;BME280;64505;51.458;7.556;2023-05-21T08:08:31;99807.19;;;16.78;72.37
75775;BME280;64505;51.458;7.556;2023-05-21T08:10:33;99805.63;;;16.92;72.60
75775;BME280;64505;51.458;7.556;2023-05-21T08:12:34;99809.66;;;16.94;71.66
75775;BME280;64505;51.458;7.556;2023-05-21T08:14:36;99813.22;;;17.20;70.99
75775;BME280;64505;51.458;7.556;2023-05-21T08:16:37;99805.75;;;17.37;70.81
75775;BME280;64505;51.458;7.556;2023-05-21T08:18:39;99804.41;;;17.30;71.34
75775;BME280;64505;51.458;7.556;2023-05-21T08:20:41;99802.00;;;17.33;71.17
75775;BME280;64505;51.458;7.556;2023-05-21T08:22:43;99793.50;;;17.46;71.51
75775;BME280;64505;51.458;7.556;2023-05-21T08:24:44;99794.81;;;17.44;69.80
75775;BME280;64505;51.458;7.556;2023-05-21T08:26:46;99800.41;;;17.47;70.69
75775;BME280;64505;51.458;7.556;2023-05-21T08:28:49;99794.78;;;17.34;70.81
75775;BME280;64505;51.458;7.556;2023-05-21T08:30:51;99802.34;;;17.57;70.44
75775;BME280;64505;51.458;7.556;2023-05-21T08:32:53;99802.84;;;17.49;70.34
75775;BME280;64505;51.458;7.556;2023-05-21T08:34:55;99799.94;;;17.65;70.83
75775;BME280;64505;51.458;7.556;2023-05-21T08:36:58;99803.16;;;17.78;70.45
75775;BME280;64505;51.458;7.556;2023-05-21T08:39:00;99812.78;;;17.99;69.82
75775;BME280;64505;51.458;7.556;2023-05-21T08:41:04;99800.47;;;17.88;69.93
75775;BME280;64505;51.458;7.556;2023-05-21T08:43:07;99806.34;;;18.20;68.78
75775;BME280;64505;51.458;7.556;2023-05-21T08:45:19;99808.50;;;18.18;67.96
75775;BME280;64505;51.458;7.556;2023-05-21T08:47:22;99804.75;;;18.29;69.24
75775;BME280;64505;51.458;7.556;2023-05-21T08:49:29;99810.88;;;18.40;68.28
75775;BME280;64505;51.458;7.556;2023-05-21T08:51:34;99809.81;;;18.41;67.83
75775;BME280;64505;51.458;7.556;2023-05-21T08:53:36;99801.22;;;18.44;68.77
75775;BME280;64505;51.458;7.556;2023-05-21T08:55:40;99802.28;;;18.53;68.54
75775;BME280;64505;51.458;7.556;2023-05-21T08:57:43;99797.44;;;18.50;68.38
75775;BME280;64505;51.458;7.556;2023-05-21T08:59:45;99803.91;;;18.39;68.58
75775;BME280;64505;51.458;7.556;2023-05-21T09:01:47;99800.41;;;18.43;67.83
75775;BME280;64505;51.458;7.556;2023-05-21T09:03:51;99798.81;;;18.62;68.32
75775;BME280;64505;51.458;7.556;2023-05-21T09:05:59;99796.13;;;18.62;67.56
75775;BME280;64505;51.458;7.556;2023-05-21T09:08:17;99792.13;;;18.55;67.78
75775;BME280;64505;51.458;7.556;2023-05-21T09:10:23;99795.28;;;18.67;67.72
75775;BME280;64505;51.458;7.556;2023-05-21T09:12:27;99791.31;;;18.44;68.25
75775;BME280;64505;51.458;7.556;2023-05-21T09:14:29;99789.72;;;18.43;68.30
75775;BME280;64505;51.458;7.556;2023-05-21T09:16:31;99782.63;;;18.83;68.44
75775;BME280;64505;51.458;7.556;2023-05-21T09:18:33;99782.56;;;18.98;67.21
75775;BME280;64505;51.458;7.556;2023-05-21T09:20:35;99787.53;;;19.20;66.56
75775;BME280;64505;51.458;7.556;2023-05-21T09:22:41;99785.00;;;19.43;66.81
75775;BME280;64505;51.458;7.556;2023-05-21T09:24:43;99777.53;;;19.35;66.04
75775;BME280;64505;51.458;7.556;2023-05-21T09:26:44;99780.44;;;19.49;65.60
75775;BME280;64505;51.458;7.556;2023-05-21T09:28:46;99782.94;;;19.69;65.98
75775;BME280;64505;51.458;7.556;2023-05-21T09:30:51;99785.81;;;19.44;67.22
75775;BME280;64505;51.458;7.556;2023-05-21T09:32:58;99788.19;;;19.84;65.23
75775;BME280;64505;51.458;7.556;2023-05-21T09:35:11;99779.16;;;20.04;65.31
75775;BME280;64505;51.458;7.556;2023-05-21T09:37:14;99788.75;;;19.81;65.28
75775;BME280;64505;51.458;7.556;2023-05-21T09:39:27;99794.13;;;19.81;64.37
75775;BME280;64505;51.458;7.556;2023-05-21T09:41:33;99786.03;;;19.52;64.84
75775;BME280;64505;51.458;7.556;2023-05-21T09:43:36;99783.53;;;19.95;64.64
75775;BME280;64505;51.458;7.556;2023-05-21T09:45:49;99777.00;;;20.06;65.01
75775;BME280;64505;51.458;7.556;2023-05-21T09:47:52;99770.69;;;19.92;63.87
75775;BME280;64505;51.458;7.556;2023-05-21T09:49:57;99774.53;;;20.09;64.12
75775;BME280;64505;51.458;7.556;2023-05-21T09:51:59;99777.47;;;20.13;64.49
75775;BME280;64505;51.458;7.556;2023-05-21T09:54:01;99771.72;;;20.25;64.28
75775;BME280;64505;51.458;7.556;2023-05-21T09:56:03;99777.31;;;19.99;64.98
75775;BME280;64505;51.458;7.556;2023-05-21T09:58:05;99780.03;;;20.23;64.10
75775;BME280;64505;51.458;7.556;2023-05-21T10:00:08;99773.34;;;20.49;63.90
75775;BME280;64505;51.458;7.556;2023-05-21T10:02:19;99771.06;;;20.38;62.87
75775;BME280;64505;51.458;7.556;2023-05-21T10:04:21;99773.63;;;20.48;64.32
75775;BME280;64505;51.458;7.556;2023-05-21T10:06:29;99775.00;;;20.45;63.02
75775;BME280;64505;51.458;7.556;2023-05-21T10:08:34;99779.09;;;20.38;64.27
75775;BME280;64505;51.458;7.556;2023-05-21T10:10:37;99770.31;;;20.56;63.93
75775;BME280;64505;51.458;7.556;2023-05-21T10:12:43;99774.19;;;20.45;62.94
75775;BME280;64505;51.458;7.556;2023-05-21T10:14:50;99775.00;;;20.45;62.69
75775;BME280;64505;51.458;7.556;2023-05-21T10:16:53;99768.84;;;20.69;63.40
75775;BME280;64505;51.458;7.556;2023-05-21T10:18:55;99769.78;;;20.78;63.30
75775;BME280;64505;51.458;7.556;2023-05-21T10:20:59;99766.88;;;20.74;62.65
75775;BME280;64505;51.458;7.556;2023-05-21T10:23:01;99759.97;;;20.68;64.07
75775;BME280;64505;51.458;7.556;2023-05-21T10:25:06;99757.53;;;21.09;63.99
75775;BME280;64505;51.458;7.556;2023-05-21T10:27:08;99764.00;;;21.08;63.71
75775;BME280;64505;51.458;7.556;2023-05-21T10:29:11;99754.59;;;21.29;62.10
75775;BME280;64505;51.458;7.556;2023-05-21T10:31:14;99748.56;;;21.37;61.77
75775;BME280;64505;51.458;7.556;2023-05-21T10:33:17;99748.84;;;21.36;63.14
75775;BME280;64505;51.458;7.556;2023-05-21T10:35:18;99742.22;;;21.47;63.20
75775;BME280;64505;51.458;7.556;2023-05-21T10:37:23;99746.06;;;21.59;62.95
75775;BME280;64505;51.458;7.556;2023-05-21T10:39:32;99744.97;;;21.74;61.84
75775;BME280;64505;51.458;7.556;2023-05-21T10:41:43;99741.66;;;21.96;62.71
75775;BME280;64505;51.458;7.556;2023-05-21T10:59:40;99743.94;;;22.35;61.40
75775;BME280;64505;51.458;7.556;2023-05-21T11:01:43;99742.31;;;22.47;60.54
75775;BME280;64505;51.458;7.556;2023-05-21T11:03:46;99740.94;;;22.50;60.15
75775;BME280;64505;51.458;7.556;2023-05-21T11:05:54;99738.94;;;22.28;60.39
75775;BME280;64505;51.458;7.556;2023-05-21T11:07:56;99743.19;;;22.02;60.10